createdAt,value
2019-03-12T00:02:25.393Z,5.67
2019-03-12T00:04:55.289Z,6.00
2019-03-12T00:07:25.165Z,5.63
2019-03-12T00:09:55.454Z,5.60
2019-03-12T00:12:25.406Z,6.50
2019-03-12T00:14:55.352Z,5.83
2019-03-12T00:17:25.651Z,6.20
2019-03-12T00:19:56.075Z,5.50
2019-03-12T00:22:26.053Z,5.67
2019-03-12T00:24:57.222Z,5.83
2019-03-12T00:27:27.231Z,6.00
2019-03-12T00:29:57.124Z,5.43
2019-03-12T00:32:27.724Z,5.37
2019-03-12T00:34:57.677Z,5.77
2019-03-12T00:37:27.511Z,6.10
2019-03-12T00:39:57.451Z,5.13
2019-03-12T00:42:27.495Z,5.23
2019-03-12T00:44:57.381Z,4.77
2019-03-12T00:47:27.429Z,6.37
2019-03-12T00:49:57.594Z,6.23
2019-03-12T00:52:27.549Z,4.60
2019-03-12T00:54:57.394Z,5.13
2019-03-12T00:57:27.465Z,5.23
2019-03-12T00:59:57.356Z,4.77
2019-03-12T01:02:27.366Z,4.70
2019-03-12T01:04:57.360Z,5.20
2019-03-12T01:07:27.364Z,4.87
2019-03-12T01:09:57.305Z,4.57
2019-03-12T01:12:27.560Z,4.80
2019-03-12T01:14:57.674Z,4.60
2019-03-12T01:17:27.844Z,4.40
2019-03-12T01:19:57.778Z,4.33
2019-03-12T01:22:27.893Z,4.87
2019-03-12T01:24:57.797Z,4.03
2019-03-12T01:27:27.703Z,4.63
2019-03-12T01:29:57.714Z,4.43
2019-03-12T01:32:28.112Z,4.30
2019-03-12T01:34:58.491Z,4.53
2019-03-12T01:37:29.148Z,5.00
2019-03-12T01:39:58.978Z,5.73
2019-03-12T01:42:29.779Z,5.00
2019-03-12T01:44:59.923Z,5.50
2019-03-12T01:47:30.935Z,5.00
2019-03-12T01:50:00.860Z,4.30
2019-03-12T01:52:30.867Z,4.30
2019-03-12T01:55:01.433Z,5.33
2019-03-12T01:57:31.797Z,5.33
2019-03-12T02:00:02.335Z,4.93
2019-03-12T02:02:32.846Z,4.20
2019-03-12T02:05:02.739Z,4.57
2019-03-12T02:07:32.926Z,4.70
2019-03-12T02:10:04.678Z,4.80
2019-03-12T02:12:34.603Z,4.17
2019-03-12T02:15:06.565Z,4.20
2019-03-12T02:17:36.557Z,3.80
2019-03-12T02:20:09.303Z,4.10
2019-03-12T02:22:39.503Z,3.77
2019-03-12T02:25:10.726Z,3.80
2019-03-12T02:27:40.998Z,4.17
2019-03-12T02:30:13.655Z,3.70
2019-03-12T02:32:44.991Z,4.67
2019-03-12T02:35:15.425Z,5.00
2019-03-12T02:37:45.698Z,4.60
2019-03-12T02:40:25.544Z,4.20
2019-03-12T02:42:55.445Z,4.07
2019-03-12T02:45:25.755Z,4.00
2019-03-12T02:47:55.897Z,3.57
2019-03-12T02:50:26.063Z,3.50
2019-03-12T02:52:56.875Z,3.93
2019-03-12T02:55:26.781Z,4.20
2019-03-12T02:57:57.263Z,3.97
2019-03-12T03:00:29.763Z,4.57
2019-03-12T03:03:00.135Z,5.47
2019-03-12T03:05:31.745Z,5.40
2019-03-12T03:08:04.740Z,5.33
2019-03-12T03:10:34.856Z,4.90
2019-03-12T03:13:05.103Z,4.83
2019-03-12T03:15:41.913Z,5.43
2019-03-12T03:18:12.011Z,5.40
2019-03-12T03:20:43.139Z,5.17
2019-03-12T03:23:13.193Z,5.70
2019-03-12T03:25:43.591Z,5.87
2019-03-12T03:28:13.809Z,5.63
2019-03-12T03:30:44.970Z,5.53
2019-03-12T03:33:15.532Z,6.00
2019-03-12T03:35:45.646Z,6.10
2019-03-12T03:38:15.806Z,6.23
2019-03-12T03:40:46.107Z,5.90
2019-03-12T03:43:16.171Z,6.57
2019-03-12T03:45:46.395Z,6.43
2019-03-12T03:48:16.834Z,6.93
2019-03-12T03:50:47.133Z,6.37
2019-03-12T03:53:17.502Z,6.47
2019-03-12T03:55:47.472Z,6.70
2019-03-12T03:58:17.623Z,6.60
2019-03-12T04:00:47.954Z,7.07
2019-03-12T04:03:18.043Z,6.23
2019-03-12T04:05:48.696Z,6.60
2019-03-12T04:08:18.959Z,6.60
2019-03-12T04:10:49.069Z,6.90
2019-03-12T04:13:19.374Z,7.33
2019-03-12T04:15:50.322Z,6.10
2019-03-12T04:18:20.722Z,6.50
2019-03-12T04:20:51.193Z,5.93
2019-03-12T04:23:21.828Z,5.53
2019-03-12T04:25:51.982Z,5.90
2019-03-12T04:28:22.148Z,5.70
2019-03-12T04:30:52.390Z,5.73
2019-03-12T04:34:16.259Z,6.23
2019-03-12T04:36:47.329Z,5.83
2019-03-12T04:39:17.388Z,7.53
2019-03-12T04:41:48.665Z,6.07
2019-03-12T04:44:18.959Z,6.40
2019-03-12T04:46:49.290Z,6.77
2019-03-12T04:49:19.367Z,6.23
2019-03-12T04:51:49.286Z,6.50
2019-03-12T04:54:19.392Z,6.33
2019-03-12T04:56:49.351Z,6.60
2019-03-12T04:59:19.621Z,6.33
2019-03-12T05:01:50.135Z,5.77
2019-03-12T05:04:20.103Z,6.23
2019-03-12T05:06:50.053Z,6.33
2019-03-12T05:09:20.047Z,6.53
2019-03-12T05:11:50.463Z,6.77
2019-03-12T05:14:31.669Z,6.10
2019-03-12T05:17:11.551Z,5.57
2019-03-12T05:19:46.334Z,5.90
2019-03-12T05:22:18.315Z,6.20
2019-03-12T05:24:48.295Z,5.73
2019-03-12T05:27:18.808Z,6.80
2019-03-12T05:29:49.111Z,5.97
2019-03-12T05:32:19.552Z,5.47
2019-03-12T05:34:49.408Z,6.10
2019-03-12T05:37:19.660Z,6.53
2019-03-12T05:39:49.790Z,6.40
2019-03-12T05:42:19.753Z,5.83
2019-03-12T05:44:49.864Z,5.57
2019-03-12T05:47:19.855Z,6.00
2019-03-12T05:49:49.932Z,6.03
2019-03-12T05:52:19.927Z,6.17
2019-03-12T05:54:50.035Z,6.00
2019-03-12T05:57:19.956Z,6.10
2019-03-12T05:59:50.104Z,6.27
2019-03-12T06:02:20.181Z,5.83
2019-03-12T06:04:50.335Z,6.33
2019-03-12T06:07:20.389Z,6.93
2019-03-12T06:09:50.788Z,5.90
2019-03-12T06:12:20.879Z,5.90
2019-03-12T06:14:50.975Z,5.77
2019-03-12T06:17:21.657Z,5.13
2019-03-12T06:19:55.800Z,5.10
2019-03-12T06:22:25.705Z,5.20
2019-03-12T06:24:56.339Z,5.53
2019-03-12T06:27:27.206Z,5.10
2019-03-12T06:29:57.589Z,5.50
2019-03-12T06:32:45.590Z,5.43
2019-03-12T06:35:41.527Z,5.13
2019-03-12T06:38:39.896Z,5.47
2019-03-12T06:41:21.218Z,5.17
2019-03-12T06:44:16.221Z,5.17
2019-03-12T06:46:57.178Z,5.10
2019-03-12T06:49:43.659Z,4.87
2019-03-12T06:52:31.653Z,4.77
2019-03-12T06:55:08.678Z,4.50
2019-03-12T06:58:26.326Z,4.03
2019-03-12T07:01:18.165Z,4.60
2019-03-12T07:04:16.546Z,3.97
2019-03-12T07:07:11.464Z,4.10
2019-03-12T07:09:49.901Z,3.83
2019-03-12T07:12:37.913Z,3.97
2019-03-12T07:15:25.174Z,5.10
2019-03-12T07:18:06.505Z,4.67
2019-03-12T07:20:48.704Z,3.40
2019-03-12T07:23:24.317Z,3.50
2019-03-12T07:26:14.198Z,3.43
2019-03-12T07:29:09.652Z,3.37
2019-03-12T07:31:54.490Z,3.40
2019-03-12T07:34:55.924Z,3.33
2019-03-12T07:37:35.483Z,3.37
2019-03-12T07:40:20.402Z,3.33
2019-03-12T07:43:12.847Z,3.73
2019-03-12T07:45:48.475Z,3.40
2019-03-12T07:48:37.896Z,3.50
2019-03-12T07:51:26.299Z,3.00
2019-03-12T07:54:11.416Z,3.17
2019-03-12T07:57:11.345Z,2.73
2019-03-12T07:59:47.243Z,2.73
2019-03-12T08:02:36.338Z,3.10
2019-03-12T08:05:24.446Z,2.80
2019-03-12T08:08:12.088Z,3.43
2019-03-12T08:10:47.852Z,2.30
2019-03-12T08:13:28.715Z,2.30
2019-03-12T08:16:22.634Z,2.50
2019-03-12T08:19:04.285Z,2.33
2019-03-12T08:21:46.002Z,2.90
2019-03-12T08:24:28.432Z,2.73
2019-03-12T08:27:07.099Z,2.97
2019-03-12T08:29:49.377Z,2.90
2019-03-12T08:32:35.418Z,2.37
2019-03-12T08:35:23.046Z,2.70
2019-03-12T08:38:12.224Z,2.40
2019-03-12T08:40:59.977Z,2.60
2019-03-12T08:43:49.107Z,2.33
2019-03-12T08:46:53.621Z,2.10
2019-03-12T08:49:35.177Z,2.95
2019-03-12T08:52:23.364Z,2.60
2019-03-12T08:55:22.036Z,2.10
2019-03-12T08:58:07.968Z,2.37
2019-03-12T09:00:56.346Z,2.43
2019-03-12T09:03:38.775Z,2.30
2019-03-12T09:06:27.982Z,2.52
2019-03-12T09:09:15.614Z,2.58
2019-03-12T09:11:59.131Z,2.40
2019-03-12T09:14:48.645Z,2.60
2019-03-12T09:17:28.502Z,2.40
2019-03-12T09:20:31.329Z,2.57
2019-03-12T09:23:39.502Z,2.87
2019-03-12T09:26:21.479Z,2.43
2019-03-12T09:29:29.351Z,2.40
2019-03-12T09:32:30.487Z,2.97
2019-03-12T09:35:25.921Z,2.53
2019-03-12T09:38:18.040Z,2.40
2019-03-12T09:41:06.229Z,2.50
2019-03-12T09:43:57.270Z,3.40
2019-03-12T09:46:41.746Z,2.67
2019-03-12T09:49:42.881Z,2.37
2019-03-12T09:52:19.790Z,2.77
2019-03-12T09:55:04.931Z,2.30
2019-03-12T09:58:03.323Z,2.23
2019-03-12T10:00:40.972Z,2.47
2019-03-12T10:03:28.842Z,4.23
2019-03-12T10:06:21.117Z,2.57
2019-03-12T10:09:10.125Z,2.13
2019-03-12T10:11:52.717Z,2.63
2019-03-12T10:14:36.807Z,2.17
2019-03-12T10:17:21.842Z,2.47
2019-03-12T10:20:23.211Z,2.67
2019-03-12T10:23:02.652Z,2.13
2019-03-12T10:25:56.244Z,2.93
2019-03-12T10:28:54.249Z,2.83
2019-03-12T10:31:51.606Z,2.60
2019-03-12T10:34:49.712Z,2.77
2019-03-12T10:37:38.930Z,2.83
2019-03-12T10:40:33.646Z,2.10
2019-03-12T10:43:23.037Z,1.80
2019-03-12T10:45:58.818Z,2.00
2019-03-12T10:48:30.324Z,2.80
2019-03-12T10:51:00.794Z,2.53
2019-03-12T10:53:30.992Z,2.90
2019-03-12T10:56:01.424Z,2.20
2019-03-12T10:58:31.453Z,2.13
2019-03-12T11:01:01.750Z,3.10
2019-03-12T11:03:31.804Z,2.67
2019-03-12T11:06:01.884Z,1.90
2019-03-12T11:08:31.920Z,2.70
2019-03-12T11:11:02.728Z,2.70
2019-03-12T11:13:32.854Z,2.57
2019-03-12T11:16:02.885Z,3.17
2019-03-12T11:18:33.182Z,2.20
2019-03-12T11:21:03.794Z,2.73
2019-03-12T11:23:34.147Z,2.63
2019-03-12T11:26:04.136Z,2.53
2019-03-12T11:28:34.720Z,2.90
2019-03-12T11:31:04.949Z,2.50
2019-03-12T11:33:34.922Z,2.23
2019-03-12T11:36:05.000Z,2.67
2019-03-12T11:38:35.179Z,2.90
2019-03-12T11:41:05.304Z,2.70
2019-03-12T11:43:35.590Z,2.50
2019-03-12T11:46:06.218Z,2.40
2019-03-12T11:48:37.269Z,3.03
2019-03-12T11:51:07.499Z,2.83
2019-03-12T11:53:38.070Z,3.20
2019-03-12T11:56:08.495Z,2.40
2019-03-12T11:58:39.328Z,2.73
2019-03-12T12:01:09.600Z,3.03
2019-03-12T12:03:39.944Z,3.00
2019-03-12T12:06:10.185Z,3.37
2019-03-12T12:08:40.190Z,2.90
2019-03-12T12:11:10.952Z,3.17
2019-03-12T12:13:41.427Z,2.60
2019-03-12T12:16:11.434Z,2.77
2019-03-12T12:18:42.056Z,3.00
2019-03-12T12:21:12.742Z,3.23
2019-03-12T12:23:43.054Z,2.87
2019-03-12T12:26:13.061Z,3.40
2019-03-12T12:28:43.244Z,3.30
2019-03-12T12:31:13.492Z,3.50
2019-03-12T12:33:43.955Z,3.43
2019-03-12T12:36:14.271Z,3.00
2019-03-12T12:38:44.380Z,2.80
2019-03-12T12:41:14.885Z,3.13
2019-03-12T12:43:45.534Z,3.10
2019-03-12T12:46:16.296Z,3.03
2019-03-12T12:48:46.291Z,2.90
2019-03-12T12:51:17.360Z,3.00
2019-03-12T12:53:47.529Z,3.20
2019-03-12T12:56:17.813Z,3.07
2019-03-12T12:58:48.078Z,2.70
2019-03-12T13:01:18.330Z,2.60
2019-03-12T13:03:48.636Z,2.90
2019-03-12T13:06:19.531Z,3.10
2019-03-12T13:08:49.857Z,2.30
2019-03-12T13:11:19.940Z,2.90
2019-03-12T13:13:50.877Z,2.37
2019-03-12T13:16:25.395Z,2.57
2019-03-12T13:18:53.217Z,2.80
2019-03-12T13:21:23.609Z,2.37
2019-03-12T13:23:55.001Z,2.53
2019-03-12T13:26:25.115Z,2.90
2019-03-12T13:28:55.303Z,2.57
2019-03-12T13:31:25.341Z,2.50
2019-03-12T13:33:55.506Z,2.33
2019-03-12T13:36:25.679Z,2.40
2019-03-12T13:38:55.739Z,2.50
2019-03-12T13:41:26.007Z,2.30
2019-03-12T13:43:56.446Z,2.57
2019-03-12T13:46:28.418Z,3.17
2019-03-12T13:48:59.138Z,3.13
2019-03-12T13:51:30.113Z,2.40
2019-03-12T13:54:03.142Z,2.37
2019-03-12T13:56:33.298Z,2.37
2019-03-12T13:59:06.561Z,2.53
2019-03-12T14:01:38.463Z,2.40
2019-03-12T14:04:10.838Z,2.77
2019-03-12T14:06:40.481Z,3.13
2019-03-12T14:09:10.647Z,2.77
2019-03-12T14:11:40.798Z,2.80
2019-03-12T14:14:10.841Z,4.37
2019-03-12T14:16:40.778Z,3.20
2019-03-12T14:19:10.941Z,3.40
2019-03-12T14:21:42.811Z,3.43
2019-03-12T14:24:12.985Z,3.07
2019-03-12T14:26:43.060Z,3.10
2019-03-12T14:29:13.287Z,3.10
2019-03-12T14:31:43.249Z,4.37
2019-03-12T14:34:13.360Z,3.90
2019-03-12T14:36:43.436Z,3.23
2019-03-12T14:39:14.305Z,3.33
2019-03-12T14:41:44.767Z,3.10
2019-03-12T14:44:14.931Z,3.03
2019-03-12T14:46:46.637Z,3.00
2019-03-12T14:49:16.727Z,2.90
2019-03-12T14:51:55.537Z,3.47
2019-03-12T14:54:26.007Z,4.10
2019-03-12T14:56:56.094Z,3.27
2019-03-12T14:59:26.414Z,2.80
2019-03-12T15:01:56.541Z,2.93
2019-03-12T15:04:26.746Z,3.60
2019-03-12T15:06:56.854Z,3.47
2019-03-12T15:09:26.720Z,3.53
2019-03-12T15:11:59.285Z,3.63
2019-03-12T15:14:29.452Z,3.90
2019-03-12T15:16:59.424Z,3.13
2019-03-12T15:19:35.302Z,3.13
2019-03-12T15:22:05.350Z,3.47
2019-03-12T15:24:36.303Z,3.90
2019-03-12T15:27:06.727Z,3.50
2019-03-12T15:29:37.034Z,3.10
2019-03-12T15:32:07.802Z,3.30
2019-03-12T15:34:37.838Z,3.60
2019-03-12T15:37:08.035Z,3.00
2019-03-12T15:39:38.178Z,3.33
2019-03-12T15:42:08.070Z,3.50
2019-03-12T15:44:38.535Z,3.53
2019-03-12T15:47:09.052Z,3.00
2019-03-12T15:49:43.008Z,3.40
2019-03-12T15:52:11.355Z,3.17
2019-03-12T15:54:41.913Z,2.90
2019-03-12T15:57:12.554Z,3.03
2019-03-12T15:59:43.073Z,2.77
2019-03-12T16:02:13.526Z,3.03
2019-03-12T16:04:43.847Z,3.00
2019-03-12T16:07:13.895Z,2.90
2019-03-12T16:09:43.919Z,3.23
2019-03-12T16:12:13.992Z,2.77
2019-03-12T16:14:44.169Z,2.93
2019-03-12T16:17:14.226Z,3.30
2019-03-12T16:19:44.383Z,2.90
2019-03-12T16:22:15.130Z,2.90
2019-03-12T16:24:45.080Z,2.97
2019-03-12T16:27:15.259Z,3.40
2019-03-12T16:29:45.526Z,3.13
2019-03-12T16:32:15.419Z,3.17
2019-03-12T16:34:45.473Z,3.57
2019-03-12T16:37:24.052Z,4.23
2019-03-12T16:39:54.110Z,4.07
2019-03-12T16:42:34.516Z,3.40
2019-03-12T16:44:56.041Z,2.80
2019-03-12T16:47:26.287Z,3.00
2019-03-12T16:49:56.669Z,2.90
2019-03-12T16:52:27.102Z,2.90
2019-03-12T16:54:56.987Z,3.03
2019-03-12T16:57:26.979Z,2.87
2019-03-12T16:59:57.363Z,2.50
2019-03-12T17:02:28.923Z,2.73
2019-03-12T17:04:59.078Z,2.57
2019-03-12T17:07:29.191Z,3.23
2019-03-12T17:09:59.469Z,2.67
2019-03-12T17:12:29.619Z,2.77
2019-03-12T17:15:00.490Z,2.23
2019-03-12T17:17:31.544Z,3.13
2019-03-12T17:20:02.143Z,2.97
2019-03-12T17:22:35.746Z,2.63
2019-03-12T17:25:06.329Z,2.20
2019-03-12T17:27:36.525Z,2.40
2019-03-12T17:30:09.964Z,2.30
2019-03-12T17:32:40.217Z,2.33
2019-03-12T17:35:11.285Z,2.30
2019-03-12T17:37:42.046Z,2.70
2019-03-12T17:40:15.171Z,2.30
2019-03-12T17:42:45.682Z,2.43
2019-03-12T17:45:16.186Z,2.60
2019-03-12T17:47:46.606Z,2.80
2019-03-12T17:50:17.353Z,2.20
2019-03-12T17:52:47.448Z,2.40
2019-03-12T17:55:17.593Z,3.03
2019-03-12T17:57:50.503Z,2.90
2019-03-12T18:00:21.245Z,2.83
2019-03-12T18:02:51.846Z,2.67
2019-03-12T18:05:21.951Z,2.20
2019-03-12T18:07:52.087Z,2.53
2019-03-12T18:10:22.704Z,3.33
2019-03-12T18:12:53.555Z,2.57
2019-03-12T18:15:24.112Z,2.60
2019-03-12T18:17:54.299Z,2.57
2019-03-12T18:20:24.706Z,3.33
2019-03-12T18:22:54.858Z,2.77
2019-03-12T18:25:26.376Z,2.77
2019-03-12T18:27:56.938Z,2.60
2019-03-12T18:30:27.388Z,2.67
2019-03-12T18:32:57.487Z,2.60
2019-03-12T18:35:27.904Z,2.43
2019-03-12T18:37:58.036Z,2.17
2019-03-12T18:40:28.235Z,2.20
2019-03-12T18:42:58.890Z,2.20
2019-03-12T18:45:29.070Z,2.57
2019-03-12T18:47:59.210Z,2.10
2019-03-12T18:50:29.278Z,2.53
2019-03-12T18:52:59.362Z,2.47
2019-03-12T18:55:43.842Z,2.50
2019-03-12T18:58:13.930Z,2.27
2019-03-12T19:00:48.694Z,2.10
2019-03-12T19:03:18.008Z,2.30
2019-03-12T19:05:48.523Z,2.70
2019-03-12T19:08:18.736Z,2.30
2019-03-12T19:10:49.467Z,2.27
2019-03-12T19:13:19.373Z,2.30
2019-03-12T19:15:49.554Z,2.63
2019-03-12T19:18:20.601Z,2.77
2019-03-12T19:20:51.438Z,2.33
2019-03-12T19:23:21.512Z,2.20
2019-03-12T19:25:52.091Z,2.23
2019-03-12T19:28:22.647Z,2.57
2019-03-12T19:30:55.611Z,2.37
2019-03-12T19:33:26.752Z,2.40
2019-03-12T19:35:57.067Z,2.77
2019-03-12T19:38:27.608Z,2.63
2019-03-12T19:40:58.229Z,2.53
2019-03-12T19:43:28.725Z,2.63
2019-03-12T19:45:58.763Z,2.47
2019-03-12T19:48:29.283Z,2.47
2019-03-12T19:50:59.802Z,2.77
2019-03-12T19:53:29.853Z,2.60
2019-03-12T19:56:00.191Z,2.37
2019-03-12T19:58:30.355Z,2.13
2019-03-12T20:01:01.628Z,1.90
2019-03-12T20:03:32.023Z,3.10
2019-03-12T20:06:03.770Z,2.50
2019-03-12T20:08:34.228Z,2.47
2019-03-12T20:11:48.739Z,2.40
2019-03-12T20:15:02.783Z,2.60
2019-03-12T20:18:45.514Z,2.40
2019-03-12T20:21:58.944Z,2.00
2019-03-12T20:25:09.620Z,2.97
2019-03-12T20:28:44.255Z,2.40
2019-03-12T20:31:35.349Z,2.80
2019-03-12T20:34:30.369Z,2.60
2019-03-12T20:37:43.356Z,2.53
2019-03-12T20:40:56.577Z,2.87
2019-03-12T20:44:22.678Z,3.07
2019-03-12T20:47:22.197Z,2.97
2019-03-12T20:50:36.216Z,2.40
2019-03-12T20:53:47.951Z,2.50
2019-03-12T20:56:54.029Z,2.50
2019-03-12T21:00:01.256Z,2.87
2019-03-12T21:03:19.279Z,2.70
2019-03-12T21:06:45.395Z,2.73
2019-03-12T21:09:58.543Z,2.80
2019-03-12T21:13:09.924Z,2.50
2019-03-12T21:16:02.417Z,2.60
2019-03-12T21:19:22.637Z,2.90
2019-03-12T21:22:18.066Z,2.57
2019-03-12T21:25:15.692Z,2.70
2019-03-12T21:28:48.354Z,2.63
2019-03-12T21:31:18.873Z,2.13
2019-03-12T21:33:49.677Z,2.80
2019-03-12T21:36:19.887Z,2.57
2019-03-12T21:38:49.877Z,2.60
2019-03-12T21:41:19.880Z,2.60
2019-03-12T21:43:49.883Z,2.30
2019-03-12T21:46:20.308Z,2.40
2019-03-12T21:48:50.489Z,2.40
2019-03-12T21:51:20.497Z,2.17
2019-03-12T21:53:50.881Z,2.30
2019-03-12T21:56:21.073Z,2.20
2019-03-12T21:58:51.570Z,2.77
2019-03-12T22:01:21.596Z,2.13
2019-03-12T22:03:51.981Z,2.50
2019-03-12T22:06:22.137Z,2.00
2019-03-12T22:08:52.199Z,2.23
2019-03-12T22:11:22.313Z,2.23
2019-03-12T22:13:52.587Z,2.50
2019-03-12T22:16:22.510Z,2.40
2019-03-12T22:18:52.534Z,2.00
2019-03-12T22:21:30.130Z,2.40
2019-03-12T22:24:05.129Z,2.03
2019-03-12T22:26:35.731Z,2.30
2019-03-12T22:29:05.850Z,2.13
2019-03-12T22:31:36.394Z,2.30
2019-03-12T22:34:06.538Z,2.63
2019-03-12T22:36:36.411Z,2.40
2019-03-12T22:39:08.581Z,2.10
2019-03-12T22:41:38.628Z,2.13
2019-03-12T22:44:08.569Z,2.60
2019-03-12T22:46:40.102Z,2.37
2019-03-12T22:49:09.985Z,2.23
2019-03-12T22:51:40.161Z,2.60
2019-03-12T22:54:10.200Z,2.60
2019-03-12T22:56:40.183Z,2.40
2019-03-12T22:59:10.186Z,2.47
2019-03-12T23:01:40.314Z,2.10
2019-03-12T23:04:10.263Z,2.00
2019-03-12T23:06:41.054Z,2.40
2019-03-12T23:09:11.331Z,2.40
2019-03-12T23:11:41.587Z,2.40
2019-03-12T23:14:11.496Z,2.10
2019-03-12T23:16:42.158Z,1.80
2019-03-12T23:19:12.235Z,1.23
2019-03-12T23:21:42.726Z,1.50
2019-03-12T23:24:13.414Z,1.60
2019-03-12T23:26:43.718Z,1.50
2019-03-12T23:29:13.746Z,1.50
2019-03-12T23:31:44.089Z,1.33
2019-03-12T23:34:14.318Z,1.40
2019-03-12T23:36:44.362Z,1.77
2019-03-12T23:39:14.532Z,1.30
2019-03-12T23:41:44.865Z,1.80
2019-03-12T23:44:15.031Z,1.50
2019-03-12T23:46:45.362Z,1.73
2019-03-12T23:49:15.637Z,1.50
2019-03-12T23:51:46.027Z,1.43
2019-03-12T23:54:16.503Z,1.70
2019-03-12T23:56:46.622Z,1.57
2019-03-12T23:59:17.154Z,1.53
